RPB7602 SKRG-SKCG
Flight info
| Callsign | RPB7602 |
|---|---|
| Flight time | N/A |
| Altitude | 24000 |
| Route | LATIS1B LATIS W65 BUTAL/N0369F230 W6 CTG |
| Aircraft | B738/M-SDE2E3FGHIRWXY/LB1 |
Departure
| Time | 2026-04-28 17:22 |
|---|---|
| Airport | Jose Maria Córdova International Airport (SKRG) |
Arrival
| Time | N/A |
|---|---|
| Airport | Rafael Nuñez International Airport (SKCG) |
| Time | Latitude | Longitude | Altitude | Speed | Heading |
|---|---|---|---|---|---|
| 2026-04-28 17:03 | 6.17289 | -75.42772 | 7018 ft | 0 kts | 212° |
| 2026-04-28 17:13 | 6.17294 | -75.42769 | 7017 ft | 2 kts | 211° |
| 2026-04-28 17:14 | 6.17309 | -75.42761 | 7018 ft | 2 kts | 205° |
| 2026-04-28 17:14 | 6.17325 | -75.42755 | 7019 ft | 2 kts | 197° |
| 2026-04-28 17:14 | 6.17341 | -75.42752 | 7018 ft | 2 kts | 168° |
| 2026-04-28 17:14 | 6.17356 | -75.42759 | 7021 ft | 2 kts | 136° |
| 2026-04-28 17:15 | 6.17367 | -75.42772 | 7018 ft | 2 kts | 118° |
| 2026-04-28 17:15 | 6.17372 | -75.42783 | 7021 ft | 1 kts | 112° |
| 2026-04-28 17:15 | 6.17374 | -75.42789 | 7020 ft | 1 kts | 111° |
| 2026-04-28 17:17 | 6.17374 | -75.42788 | 7020 ft | 1 kts | 111° |
| 2026-04-28 17:17 | 6.17368 | -75.42773 | 7017 ft | 6 kts | 110° |
| 2026-04-28 17:17 | 6.17338 | -75.42712 | 7019 ft | 14 kts | 119° |
| 2026-04-28 17:17 | 6.17263 | -75.42624 | 7018 ft | 19 kts | 161° |
| 2026-04-28 17:18 | 6.17113 | -75.42616 | 7016 ft | 25 kts | 174° |
| 2026-04-28 17:18 | 6.16938 | -75.42531 | 7010 ft | 32 kts | 150° |
| 2026-04-28 17:18 | 6.16741 | -75.42483 | 6994 ft | 31 kts | 180° |
| 2026-04-28 17:18 | 6.16495 | -75.42481 | 6985 ft | 39 kts | 179° |
| 2026-04-28 17:19 | 6.16196 | -75.42477 | 6977 ft | 46 kts | 179° |
| 2026-04-28 17:19 | 6.15866 | -75.42476 | 6972 ft | 49 kts | 179° |
| 2026-04-28 17:19 | 6.15518 | -75.42472 | 6975 ft | 50 kts | 180° |
| 2026-04-28 17:19 | 6.15208 | -75.42471 | 6976 ft | 37 kts | 180° |
| 2026-04-28 17:20 | 6.14995 | -75.42471 | 6977 ft | 23 kts | 179° |
| 2026-04-28 17:20 | 6.14909 | -75.42465 | 6976 ft | 14 kts | 157° |
| 2026-04-28 17:20 | 6.14888 | -75.42411 | 6975 ft | 6 kts | 88° |
| 2026-04-28 17:20 | 6.14891 | -75.42366 | 6975 ft | 8 kts | 80° |
| 2026-04-28 17:21 | 6.14922 | -75.42324 | 6974 ft | 8 kts | 30° |
| 2026-04-28 17:21 | 6.14999 | -75.42300 | 6977 ft | 21 kts | 1° |
| 2026-04-28 17:21 | 6.15375 | -75.42303 | 6981 ft | 87 kts | 359° |
| 2026-04-28 17:22 | 6.17323 | -75.42330 | 7070 ft | 182 kts | 358° |
| 2026-04-28 17:22 | 6.18618 | -75.42347 | 7626 ft | 190 kts | 358° |
| 2026-04-28 17:22 | 6.19916 | -75.42349 | 8517 ft | 182 kts | 359° |
| 2026-04-28 17:23 | 6.22339 | -75.41407 | 9249 ft | 219 kts | 61° |
| 2026-04-28 17:23 | 6.22619 | -75.39869 | 9442 ft | 238 kts | 102° |
| 2026-04-28 17:23 | 6.22074 | -75.38220 | 9612 ft | 259 kts | 100° |
| 2026-04-28 17:23 | 6.22284 | -75.36407 | 9820 ft | 282 kts | 65° |
| 2026-04-28 17:24 | 6.23505 | -75.34743 | 10033 ft | 308 kts | 48° |
| 2026-04-28 17:24 | 6.24858 | -75.32992 | 10507 ft | 323 kts | 57° |
| 2026-04-28 17:24 | 6.26008 | -75.31047 | 11264 ft | 328 kts | 62° |
| 2026-04-28 17:24 | 6.27062 | -75.28994 | 12100 ft | 331 kts | 64° |
| 2026-04-28 17:25 | 6.28125 | -75.26922 | 12888 ft | 335 kts | 57° |
| 2026-04-28 17:25 | 6.31944 | -75.24382 | 14389 ft | 342 kts | 9° |
| 2026-04-28 17:25 | 6.34333 | -75.24241 | 15124 ft | 345 kts | 359° |
| 2026-04-28 17:26 | 6.36738 | -75.24276 | 15832 ft | 349 kts | 358° |
| 2026-04-28 17:26 | 6.39205 | -75.24321 | 16518 ft | 354 kts | 359° |
| 2026-04-28 17:26 | 6.41651 | -75.24343 | 17202 ft | 357 kts | 359° |
| 2026-04-28 17:26 | 6.44160 | -75.24350 | 17884 ft | 361 kts | 360° |
| 2026-04-28 17:27 | 6.46678 | -75.24456 | 18520 ft | 365 kts | 350° |
| 2026-04-28 17:27 | 6.49173 | -75.25016 | 19171 ft | 367 kts | 345° |
| 2026-04-28 17:27 | 6.51665 | -75.25695 | 19804 ft | 371 kts | 344° |
| 2026-04-28 17:27 | 6.54165 | -75.26398 | 20407 ft | 375 kts | 344° |
| 2026-04-28 17:28 | 6.56677 | -75.27099 | 20990 ft | 378 kts | 344° |
| 2026-04-28 17:28 | 6.61791 | -75.28487 | 22124 ft | 385 kts | 345° |
| 2026-04-28 17:28 | 6.64395 | -75.29180 | 22669 ft | 388 kts | 345° |
| 2026-04-28 17:29 | 6.67021 | -75.29874 | 23196 ft | 391 kts | 345° |
| 2026-04-28 17:29 | 6.69641 | -75.30563 | 23715 ft | 394 kts | 345° |
| 2026-04-28 17:29 | 6.72320 | -75.31267 | 24202 ft | 398 kts | 345° |
| 2026-04-28 17:30 | 6.77722 | -75.32687 | 25163 ft | 404 kts | 345° |
| 2026-04-28 17:30 | 6.83196 | -75.34126 | 26068 ft | 410 kts | 345° |
| 2026-04-28 17:30 | 6.85954 | -75.34851 | 26498 ft | 412 kts | 345° |
| 2026-04-28 17:31 | 6.88722 | -75.35579 | 26915 ft | 415 kts | 345° |
| 2026-04-28 17:31 | 6.94379 | -75.37067 | 27719 ft | 420 kts | 345° |
| 2026-04-28 17:32 | 7.00056 | -75.38561 | 28474 ft | 426 kts | 345° |
| 2026-04-28 17:32 | 7.02945 | -75.39260 | 28829 ft | 428 kts | 350° |
| 2026-04-28 17:32 | 7.05879 | -75.39613 | 29252 ft | 429 kts | 355° |
| 2026-04-28 17:32 | 7.08861 | -75.39829 | 29773 ft | 426 kts | 356° |
| 2026-04-28 17:33 | 7.11831 | -75.40004 | 30276 ft | 424 kts | 356° |
| 2026-04-28 17:33 | 7.14745 | -75.40178 | 30702 ft | 424 kts | 356° |
| 2026-04-28 17:33 | 7.17693 | -75.40370 | 31100 ft | 424 kts | 356° |
| 2026-04-28 17:33 | 7.19661 | -75.40508 | 31377 ft | 424 kts | 355° |
| 2026-04-28 17:34 | 7.23573 | -75.40799 | 31925 ft | 423 kts | 355° |
| 2026-04-28 17:34 | 7.26525 | -75.41028 | 31982 ft | 426 kts | 355° |
| 2026-04-28 17:34 | 7.32392 | -75.41493 | 31999 ft | 422 kts | 355° |
| 2026-04-28 17:35 | 7.38232 | -75.41958 | 32009 ft | 422 kts | 355° |
| 2026-04-28 17:35 | 7.44113 | -75.42425 | 32005 ft | 422 kts | 355° |
| 2026-04-28 17:36 | 7.49940 | -75.42887 | 32002 ft | 423 kts | 355° |
| 2026-04-28 17:36 | 7.55857 | -75.43356 | 32001 ft | 423 kts | 355° |
| 2026-04-28 17:37 | 7.61695 | -75.43819 | 32002 ft | 423 kts | 355° |
| 2026-04-28 17:37 | 7.67578 | -75.44285 | 32001 ft | 423 kts | 355° |
| 2026-04-28 17:38 | 7.73424 | -75.44749 | 32001 ft | 422 kts | 355° |
| 2026-04-28 17:38 | 7.79287 | -75.45214 | 32001 ft | 422 kts | 355° |
| 2026-04-28 17:39 | 7.85146 | -75.45678 | 32001 ft | 422 kts | 355° |
| 2026-04-28 17:40 | 7.93928 | -75.45948 | 32002 ft | 422 kts | 359° |
| 2026-04-28 17:40 | 7.99810 | -75.46024 | 32001 ft | 422 kts | 359° |
| 2026-04-28 17:41 | 8.05661 | -75.46123 | 32001 ft | 422 kts | 359° |
| 2026-04-28 17:41 | 8.11532 | -75.46239 | 32001 ft | 422 kts | 358° |
| 2026-04-28 17:42 | 8.17400 | -75.46360 | 32001 ft | 422 kts | 358° |
| 2026-04-28 17:42 | 8.23244 | -75.46482 | 32001 ft | 422 kts | 358° |
| 2026-04-28 17:43 | 8.29111 | -75.46604 | 32001 ft | 422 kts | 358° |
| 2026-04-28 17:43 | 8.34981 | -75.46725 | 32002 ft | 422 kts | 358° |
| 2026-04-28 17:44 | 8.40858 | -75.46847 | 32001 ft | 422 kts | 358° |
| 2026-04-28 17:44 | 8.46734 | -75.46969 | 32001 ft | 422 kts | 358° |
| 2026-04-28 17:45 | 8.51604 | -75.47070 | 32001 ft | 422 kts | 358° |
| 2026-04-28 17:45 | 8.58442 | -75.47211 | 32001 ft | 422 kts | 358° |
| 2026-04-28 17:46 | 8.63335 | -75.47313 | 32001 ft | 421 kts | 358° |
| 2026-04-28 17:46 | 8.69176 | -75.47434 | 32001 ft | 421 kts | 358° |
| 2026-04-28 17:47 | 8.73972 | -75.47533 | 32001 ft | 421 kts | 358° |
| 2026-04-28 17:47 | 8.79837 | -75.47655 | 32001 ft | 421 kts | 358° |
| 2026-04-28 17:48 | 8.85719 | -75.47777 | 32001 ft | 421 kts | 358° |
| 2026-04-28 17:48 | 8.91596 | -75.47899 | 32001 ft | 421 kts | 358° |
| 2026-04-28 17:49 | 8.97458 | -75.48021 | 32001 ft | 421 kts | 358° |
| 2026-04-28 17:49 | 9.03308 | -75.48143 | 32001 ft | 421 kts | 358° |
| 2026-04-28 17:50 | 9.09098 | -75.48263 | 32001 ft | 421 kts | 358° |
| 2026-04-28 17:50 | 9.14984 | -75.48385 | 32001 ft | 421 kts | 358° |
| 2026-04-28 17:51 | 9.20848 | -75.48507 | 32001 ft | 421 kts | 358° |
| 2026-04-28 17:51 | 9.26725 | -75.48630 | 32001 ft | 421 kts | 358° |
| 2026-04-28 17:52 | 9.32579 | -75.48752 | 32001 ft | 421 kts | 358° |
| 2026-04-28 17:52 | 9.41377 | -75.48935 | 32002 ft | 421 kts | 358° |
| 2026-04-28 17:53 | 9.47244 | -75.49057 | 32001 ft | 421 kts | 358° |
| 2026-04-28 17:53 | 9.53076 | -75.49179 | 32001 ft | 421 kts | 358° |
| 2026-04-28 17:54 | 9.58961 | -75.49302 | 32001 ft | 421 kts | 358° |
| 2026-04-28 17:54 | 9.64744 | -75.49423 | 31990 ft | 416 kts | 358° |
| 2026-04-28 17:55 | 9.70481 | -75.49543 | 31994 ft | 404 kts | 358° |
| 2026-04-28 17:55 | 9.76100 | -75.49661 | 31912 ft | 406 kts | 358° |
| 2026-04-28 17:56 | 9.78900 | -75.49720 | 31619 ft | 404 kts | 358° |
| 2026-04-28 17:56 | 9.81695 | -75.49778 | 31271 ft | 399 kts | 358° |
| 2026-04-28 17:56 | 9.84463 | -75.49837 | 30914 ft | 396 kts | 358° |
| 2026-04-28 17:56 | 9.87241 | -75.49895 | 30546 ft | 393 kts | 358° |
| 2026-04-28 17:57 | 9.89934 | -75.49951 | 30187 ft | 391 kts | 358° |
| 2026-04-28 17:57 | 9.92641 | -75.50008 | 29818 ft | 388 kts | 358° |
| 2026-04-28 17:57 | 9.95326 | -75.50064 | 29450 ft | 385 kts | 358° |
| 2026-04-28 17:57 | 9.98012 | -75.50121 | 29073 ft | 383 kts | 358° |
| 2026-04-28 17:58 | 10.00650 | -75.50176 | 28686 ft | 380 kts | 358° |
| 2026-04-28 17:58 | 10.03286 | -75.50232 | 28310 ft | 378 kts | 358° |
| 2026-04-28 17:58 | 10.05922 | -75.50287 | 27939 ft | 375 kts | 358° |
| 2026-04-28 17:58 | 10.08508 | -75.50341 | 27558 ft | 373 kts | 358° |
| 2026-04-28 17:59 | 10.11076 | -75.50395 | 27188 ft | 371 kts | 358° |
| 2026-04-28 17:59 | 10.13263 | -75.50441 | 26880 ft | 369 kts | 358° |
| 2026-04-28 17:59 | 10.15842 | -75.50496 | 26500 ft | 366 kts | 358° |
| 2026-04-28 17:59 | 10.18385 | -75.50549 | 26133 ft | 364 kts | 358° |
| 2026-04-28 18:00 | 10.20858 | -75.50601 | 25781 ft | 362 kts | 358° |
| 2026-04-28 18:00 | 10.23378 | -75.50654 | 25632 ft | 353 kts | 358° |
| 2026-04-28 18:00 | 10.25743 | -75.50981 | 25559 ft | 341 kts | 344° |
| 2026-04-28 18:00 | 10.27968 | -75.51712 | 25482 ft | 329 kts | 330° |
| 2026-04-28 18:01 | 10.29655 | -75.53199 | 25323 ft | 318 kts | 301° |
| 2026-04-28 18:01 | 10.30485 | -75.55248 | 25036 ft | 313 kts | 282° |
| 2026-04-28 18:01 | 10.30811 | -75.57421 | 24664 ft | 313 kts | 272° |
| 2026-04-28 18:01 | 10.30634 | -75.59602 | 24275 ft | 313 kts | 255° |
| 2026-04-28 18:02 | 10.29718 | -75.61587 | 23929 ft | 310 kts | 231° |
| 2026-04-28 18:02 | 10.28134 | -75.63053 | 23626 ft | 308 kts | 212° |
| 2026-04-28 18:02 | 10.26210 | -75.63981 | 23303 ft | 306 kts | 195° |
| 2026-04-28 18:02 | 10.24110 | -75.64275 | 22978 ft | 305 kts | 183° |
| 2026-04-28 18:03 | 10.21987 | -75.64351 | 22697 ft | 302 kts | 182° |
| 2026-04-28 18:03 | 10.19905 | -75.64412 | 22398 ft | 301 kts | 182° |
| 2026-04-28 18:03 | 10.17829 | -75.64483 | 22088 ft | 300 kts | 182° |
| 2026-04-28 18:03 | 10.15761 | -75.64271 | 21745 ft | 300 kts | 162° |
| 2026-04-28 18:04 | 10.13917 | -75.63312 | 21431 ft | 298 kts | 142° |
| 2026-04-28 18:04 | 10.12495 | -75.61810 | 21134 ft | 297 kts | 123° |
| 2026-04-28 18:04 | 10.11629 | -75.59902 | 20797 ft | 297 kts | 104° |
| 2026-04-28 18:04 | 10.11465 | -75.57817 | 20481 ft | 296 kts | 83° |
| 2026-04-28 18:05 | 10.12031 | -75.55818 | 20164 ft | 295 kts | 62° |
| 2026-04-28 18:05 | 10.12776 | -75.54662 | 19956 ft | 294 kts | 49° |
| 2026-04-28 18:05 | 10.14919 | -75.52995 | 19547 ft | 292 kts | 25° |
| 2026-04-28 18:05 | 10.16849 | -75.52392 | 19231 ft | 290 kts | 7° |
| 2026-04-28 18:06 | 10.18835 | -75.52241 | 18951 ft | 289 kts | 1° |
| 2026-04-28 18:06 | 10.20849 | -75.52186 | 18659 ft | 288 kts | 1° |
| 2026-04-28 18:06 | 10.22837 | -75.52129 | 18364 ft | 287 kts | 1° |
| 2026-04-28 18:06 | 10.24826 | -75.52058 | 18084 ft | 285 kts | 1° |
| 2026-04-28 18:07 | 10.26787 | -75.51983 | 17835 ft | 283 kts | 2° |
| 2026-04-28 18:07 | 10.28729 | -75.51907 | 17730 ft | 275 kts | 2° |
| 2026-04-28 18:07 | 10.30639 | -75.51832 | 17476 ft | 272 kts | 2° |
| 2026-04-28 18:07 | 10.32523 | -75.51758 | 17178 ft | 272 kts | 2° |
| 2026-04-28 18:08 | 10.34375 | -75.51684 | 17070 ft | 262 kts | 2° |
| 2026-04-28 18:08 | 10.36147 | -75.51617 | 16581 ft | 254 kts | 1° |
| 2026-04-28 18:08 | 10.37568 | -75.51558 | 11641 ft | 188 kts | 0° |
| 2026-04-28 18:08 | 10.39808 | -75.51657 | 3869 ft | 329 kts | 359° |
| 2026-04-28 18:09 | 10.42243 | -75.51416 | 766 ft | 328 kts | 10° |
| 2026-04-28 18:09 | 10.44155 | -75.51245 | 622 ft | 229 kts | 3° |